الصفحة الرئيسية
METAR-TAF:

METAR-TAF

مطار :

Telluride Regional Airport

Telluride, كولورادو, الولايات المتحدة

دائرة عرض: 37-57-14N, خط طول: 107-54-31W, ارتفاع: 2767 متر

مراقبة الطقس الحالي

تاريخ ووقت الإصدار 23 دقيقة قبل الساعة 05:15UTC
ريح 6 عقدة من الجنوب الشرقي
درجة الحرارة -1°درجة مئوية
الرطوبة 40%
ضغط 1026 hPa
الرؤية: 16.1 كم
سماء صافية

METAR: KTEX 210515Z AUTO 14006KT 10SM CLR M01/M13 A3031 RMK AO2

زمن: 22:38 (05:38 UTC)

توقعات

تاريخ ووقت الإصدار 6ساعات و 17 دقيقة قبل الساعة 23:21UTC
التوقعات صالحة من21 الساعة 00 UTC إلى 21 الساعة 24 UTC
ريح 10 عقدة من الغرب
الرؤية: 10 كم
سماء صافية
من 21 الساعة 0200 UTC
ريح 7 عقدة من الجنوب الشرقي
الرؤية: 10 كم
سماء صافية
من 21 الساعة 1800 UTC
ريح 7 عقدة من الغرب
الرؤية: 10 كم
سماء صافية

TAF: KTEX 202321Z 2100/2124 28010KT P6SM SKC FM210200 13007KT P6SM SKC FM211800 26007KT P6SM SKC

أرصاد الطقس والتوقعات من أكثر من 4000 مطار (تقارير الطقس للمطار METAR والتنبؤ بالطقس بالمطارTAF).

المحطات المتاحة هي النقط الصفراء والحمراء على الخريطة.

حرك المؤشر فوق النقطة لمعرفة اسم المحطة.

ثم انقر لمعرفة أرصاد وتوقعات الطقس.

لتغيير الخارطة: اضغط على الأزرار الخضراء مع رمز الصليب الأسود للتكبير. على الزر الأخضر مع شرطة للتصغير، أو على الأسهم الخضراء للخرائط المجاورة.


METAR-TAF: